Time;durP1;ratioP1;P1;durP2;ratioP2;P2;SDS_P1;SDS_P2;PMS_P1;PMS_P2;Temp;Humidity;BMP_temperature;BMP_pressure;BME280_temperature;BME280_humidity;BME280_pressure;Samples;Min_cycle;Max_cycle;Signal;HPM_P1;HPM_P2
2022/01/23 00:00:04;;;;;;;12.90;7.63;;;;;;;;;;6170340;23;20478;-77
2022/01/23 00:02:33;;;;;;;12.48;8.02;;;;;;;;;;6138134;23;20041;-77
2022/01/23 00:05:06;;;;;;;16.15;8.27;;;;;;;;;;6147736;23;20030;-78
2022/01/23 00:07:33;;;;;;;12.00;7.68;;;;;;;;;;6115464;23;20006;-81
2022/01/23 00:10:00;;;;;;;20.38;11.52;;;;;;;;;;6112469;23;20002;-77
2022/01/23 00:12:29;;;;;;;17.55;9.05;;;;;;;;;;6138883;23;20097;-82
2022/01/23 00:17:40;;;;;;;20.60;10.77;;;;;;;;;;6139494;23;20024;-78
2022/01/23 00:20:07;;;;;;;22.05;12.68;;;;;;;;;;6134792;23;20030;-78
2022/01/23 00:30:31;;;;;;;21.15;11.25;;;;;;;;;;6227910;23;20016;-80
2022/01/23 00:32:59;;;;;;;27.40;13.63;;;;;;;;;;6226629;23;20000;-79
2022/01/23 00:35:26;;;;;;;26.50;14.00;;;;;;;;;;6227387;23;20010;-76
2022/01/23 00:37:53;;;;;;;25.40;14.18;;;;;;;;;;6231724;23;19997;-80
2022/01/23 00:40:20;;;;;;;24.35;13.18;;;;;;;;;;6201192;23;20085;-78
2022/01/23 00:42:46;;;;;;;26.60;12.48;;;;;;;;;;6226392;23;20012;-76
2022/01/23 00:47:42;;;;;;;25.27;13.23;;;;;;;;;;6237142;23;20055;-78
2022/01/23 00:50:08;;;;;;;24.80;13.85;;;;;;;;;;6228171;23;20001;-76
2022/01/23 00:52:34;;;;;;;27.30;14.57;;;;;;;;;;6225734;23;20001;-77
2022/01/23 00:55:04;;;;;;;27.38;15.77;;;;;;;;;;6226618;23;20000;-77
2022/01/23 00:57:33;;;;;;;30.30;13.68;;;;;;;;;;6227719;23;20310;-79
2022/01/23 01:00:02;;;;;;;30.67;13.00;;;;;;;;;;6178441;23;20068;-78
2022/01/23 01:02:29;;;;;;;22.90;12.27;;;;;;;;;;6231195;23;20028;-79
2022/01/23 01:04:59;;;;;;;22.73;11.73;;;;;;;;;;6245135;23;20066;-79
2022/01/23 01:07:25;;;;;;;49.90;23.45;;;;;;;;;;6235084;23;20011;-80
2022/01/23 01:09:54;;;;;;;42.40;22.27;;;;;;;;;;6257019;23;20054;-76
2022/01/23 01:12:25;;;;;;;24.98;15.00;;;;;;;;;;6257534;23;20406;-78
2022/01/23 01:17:40;;;;;;;25.02;13.10;;;;;;;;;;6267147;23;20166;-76
2022/01/23 01:31:10;;;;;;;20.27;11.30;;;;;;;;;;6260149;23;20027;-80
2022/01/23 01:39:06;;;;;;;21.05;10.45;;;;;;;;;;6200890;23;20016;-80
2022/01/23 01:41:39;;;;;;;19.95;10.93;;;;;;;;;;6201158;23;20334;-81
2022/01/23 01:44:07;;;;;;;19.70;10.30;;;;;;;;;;6167238;23;20340;-79
2022/01/23 01:46:34;;;;;;;18.13;9.38;;;;;;;;;;6193470;23;20009;-77
2022/01/23 01:49:00;;;;;;;16.75;9.30;;;;;;;;;;6191970;23;20009;-79
2022/01/23 01:51:31;;;;;;;19.88;9.75;;;;;;;;;;6199055;23;20756;-80
2022/01/23 01:54:06;;;;;;;19.23;10.63;;;;;;;;;;6192832;23;20009;-76
2022/01/23 01:56:40;;;;;;;17.23;9.93;;;;;;;;;;6198796;23;20001;-77
2022/01/23 02:09:23;;;;;;;16.23;8.90;;;;;;;;;;6193565;23;20051;-77
2022/01/23 02:14:58;;;;;;;18.05;9.38;;;;;;;;;;6205230;23;20019;-78
2022/01/23 02:17:53;;;;;;;16.42;9.32;;;;;;;;;;6263101;23;20092;-78
2022/01/23 02:55:29;;;;;;;18.92;9.18;;;;;;;;;;6268808;23;20187;-75
2022/01/23 02:57:59;;;;;;;18.83;10.05;;;;;;;;;;6257498;23;20003;-77
2022/01/23 03:00:35;;;;;;;17.95;10.43;;;;;;;;;;6257909;23;20000;-86
2022/01/23 03:03:08;;;;;;;20.17;11.55;;;;;;;;;;6257295;23;20011;-77
2022/01/23 03:05:37;;;;;;;;;;;;;;;;;;6256878;23;20008;-76
2022/01/23 03:10:39;;;;;;;24.38;10.80;;;;;;;;;;6267413;23;20019;-80
2022/01/23 03:24:32;;;;;;;23.55;15.45;;;;;;;;;;6162153;23;20064;-76
2022/01/23 03:32:47;;;;;;;33.90;17.95;;;;;;;;;;6076194;23;20026;-78
2022/01/23 03:35:14;;;;;;;38.22;20.05;;;;;;;;;;6078028;23;20011;-77
2022/01/23 03:37:40;;;;;;;32.50;16.63;;;;;;;;;;6079402;23;20003;-76
2022/01/23 03:40:07;;;;;;;25.13;13.57;;;;;;;;;;6079471;23;20334;-76
2022/01/23 03:42:35;;;;;;;20.70;12.45;;;;;;;;;;6078519;23;20094;-77
2022/01/23 03:49:30;;;;;;;18.48;11.20;;;;;;;;;;6078156;23;20381;-79
2022/01/23 03:50:42;;;;;;;29.77;13.55;;;;;;;;;;6143167;23;20013;-74
2022/01/23 03:53:11;;;;;;;26.27;14.15;;;;;;;;;;6166009;23;20006;-78
2022/01/23 03:55:37;;;;;;;26.45;13.07;;;;;;;;;;6165679;23;20002;-77
2022/01/23 03:58:03;;;;;;;18.58;9.93;;;;;;;;;;6166586;23;20037;-74
2022/01/23 04:00:31;;;;;;;17.50;8.10;;;;;;;;;;6162509;23;20005;-75
2022/01/23 04:02:59;;;;;;;13.80;7.60;;;;;;;;;;6165863;23;20118;-77
2022/01/23 04:05:25;;;;;;;14.68;8.05;;;;;;;;;;6161520;23;20013;-78
2022/01/23 04:07:52;;;;;;;15.13;8.00;;;;;;;;;;6254108;23;20134;-80
2022/01/23 04:10:23;;;;;;;14.80;8.55;;;;;;;;;;6256866;23;20125;-74
2022/01/23 04:12:57;;;;;;;20.27;9.57;;;;;;;;;;6256955;23;20004;-81
2022/01/23 04:15:38;;;;;;;15.68;8.20;;;;;;;;;;6262563;23;20000;-76
2022/01/23 04:32:03;;;;;;;23.38;11.45;;;;;;;;;;6259045;23;20050;-79
2022/01/23 04:45:28;;;;;;;16.92;8.40;;;;;;;;;;6261176;23;20039;-81
2022/01/23 05:02:10;;;;;;;21.23;9.80;;;;;;;;;;6255044;23;20036;-78
2022/01/23 05:04:37;;;;;;;18.90;9.18;;;;;;;;;;6234431;23;20030;-78
2022/01/23 05:07:10;;;;;;;14.38;8.38;;;;;;;;;;6229028;23;20001;-79
2022/01/23 05:09:38;;;;;;;16.67;7.40;;;;;;;;;;6256788;23;20004;-82
2022/01/23 05:12:05;;;;;;;13.82;7.95;;;;;;;;;;6256940;23;19992;-76
2022/01/23 05:14:38;;;;;;;13.10;7.70;;;;;;;;;;6255668;23;20065;-77
2022/01/23 05:17:05;;;;;;;15.80;8.95;;;;;;;;;;6255212;23;20011;-80
2022/01/23 05:19:35;;;;;;;17.90;10.07;;;;;;;;;;6256682;23;20000;-80
2022/01/23 05:22:20;;;;;;;23.10;11.25;;;;;;;;;;6260802;23;20303;-82
2022/01/23 05:24:52;;;;;;;21.58;10.73;;;;;;;;;;6254073;23;20000;-80
2022/01/23 05:27:21;;;;;;;16.50;9.02;;;;;;;;;;6254638;23;20013;-80
2022/01/23 05:29:48;;;;;;;15.00;8.02;;;;;;;;;;6259975;23;20429;-82
2022/01/23 05:32:15;;;;;;;13.77;7.75;;;;;;;;;;6229162;23;20091;-79
2022/01/23 05:34:42;;;;;;;13.23;6.70;;;;;;;;;;6227283;23;20007;-74
2022/01/23 05:37:08;;;;;;;13.75;6.57;;;;;;;;;;6256358;23;20011;-80
2022/01/23 05:39:34;;;;;;;11.10;6.40;;;;;;;;;;6262687;23;20007;-83
2022/01/23 05:42:07;;;;;;;10.23;6.25;;;;;;;;;;6226676;23;20004;-80
2022/01/23 05:44:36;;;;;;;11.15;6.70;;;;;;;;;;6253220;23;20004;-74
2022/01/23 05:47:02;;;;;;;10.32;6.55;;;;;;;;;;6255661;23;20020;-80
2022/01/23 05:49:28;;;;;;;10.73;6.05;;;;;;;;;;6253816;23;20004;-78
2022/01/23 05:51:55;;;;;;;11.38;6.82;;;;;;;;;;6256422;23;20004;-78
2022/01/23 05:54:21;;;;;;;13.90;6.65;;;;;;;;;;6225616;23;20015;-80
2022/01/23 05:56:47;;;;;;;9.65;5.97;;;;;;;;;;6229786;23;20410;-73
2022/01/23 05:59:20;;;;;;;12.40;6.97;;;;;;;;;;6253846;23;20028;-74
2022/01/23 06:01:46;;;;;;;10.80;6.50;;;;;;;;;;6252249;23;20326;-80
2022/01/23 06:04:12;;;;;;;11.73;7.20;;;;;;;;;;6253445;23;20012;-78
2022/01/23 06:06:38;;;;;;;10.73;7.07;;;;;;;;;;6254413;23;20000;-80
2022/01/23 06:09:05;;;;;;;13.13;8.13;;;;;;;;;;6261622;23;20036;-85
2022/01/23 06:11:32;;;;;;;14.60;8.82;;;;;;;;;;6224368;23;20015;-83
2022/01/23 06:13:58;;;;;;;15.98;8.68;;;;;;;;;;6254358;23;20418;-80
2022/01/23 06:16:26;;;;;;;12.90;7.70;;;;;;;;;;6256744;23;20031;-76
2022/01/23 06:18:53;;;;;;;14.38;8.43;;;;;;;;;;6226215;23;20004;-82
2022/01/23 06:21:20;;;;;;;16.15;8.00;;;;;;;;;;6231896;23;20008;-77
2022/01/23 06:23:54;;;;;;;14.95;8.25;;;;;;;;;;6229261;23;20083;-80
2022/01/23 06:26:25;;;;;;;13.82;8.43;;;;;;;;;;6254497;23;20051;-81
2022/01/23 06:28:52;;;;;;;14.38;8.20;;;;;;;;;;6228874;23;20065;-80
2022/01/23 06:31:19;;;;;;;16.55;9.27;;;;;;;;;;6229527;23;20008;-79
2022/01/23 06:33:45;;;;;;;19.85;9.50;;;;;;;;;;6228090;23;20008;-79
2022/01/23 06:36:16;;;;;;;13.50;7.68;;;;;;;;;;6253774;23;20007;-78
2022/01/23 06:38:44;;;;;;;15.40;7.73;;;;;;;;;;6253580;23;20023;-81
2022/01/23 06:41:16;;;;;;;16.02;8.60;;;;;;;;;;6254511;23;20003;-78
2022/01/23 06:43:42;;;;;;;19.48;9.15;;;;;;;;;;6228574;23;20057;-83
2022/01/23 06:46:15;;;;;;;17.40;9.15;;;;;;;;;;6258994;23;20012;-84
2022/01/23 06:49:02;;;;;;;16.15;8.85;;;;;;;;;;6257681;23;20066;-81
2022/01/23 06:51:44;;;;;;;18.42;9.77;;;;;;;;;;6188174;23;20008;-78
2022/01/23 06:54:14;;;;;;;17.55;9.50;;;;;;;;;;6264604;23;20004;-79
2022/01/23 06:57:03;;;;;;;27.73;17.08;;;;;;;;;;6203860;23;19997;-78
2022/01/23 06:59:35;;;;;;;31.38;21.00;;;;;;;;;;6202323;23;20009;-82
2022/01/23 07:02:03;;;;;;;20.42;12.40;;;;;;;;;;6153316;23;20025;-85
2022/01/23 07:04:30;;;;;;;19.35;12.93;;;;;;;;;;6201321;23;20065;-77
2022/01/23 07:06:59;;;;;;;18.70;10.65;;;;;;;;;;6201099;23;20045;-90
2022/01/23 07:09:25;;;;;;;15.88;8.75;;;;;;;;;;6198076;23;20005;-83
2022/01/23 07:11:51;;;;;;;16.83;9.80;;;;;;;;;;6175034;23;20016;-79
2022/01/23 07:14:33;;;;;;;15.90;9.05;;;;;;;;;;6198705;23;20009;-77
2022/01/23 07:17:05;;;;;;;16.45;8.98;;;;;;;;;;6195143;23;20012;-79
2022/01/23 07:19:34;;;;;;;16.58;10.10;;;;;;;;;;6174894;23;20009;-78
2022/01/23 07:22:00;;;;;;;19.02;10.43;;;;;;;;;;6171952;23;20035;-78
2022/01/23 07:24:26;;;;;;;20.45;11.80;;;;;;;;;;6198306;23;20016;-76
2022/01/23 07:26:52;;;;;;;19.60;11.73;;;;;;;;;;6195888;23;20016;-88
2022/01/23 07:29:20;;;;;;;18.83;12.85;;;;;;;;;;6257235;23;20052;-75
2022/01/23 07:34:22;;;;;;;19.98;11.52;;;;;;;;;;6267182;23;20038;-76
2022/01/23 07:36:48;;;;;;;19.80;11.10;;;;;;;;;;6260275;23;20000;-77
2022/01/23 07:39:18;;;;;;;19.75;11.48;;;;;;;;;;6260603;23;20091;-80
2022/01/23 07:41:45;;;;;;;21.35;11.52;;;;;;;;;;6228386;23;20010;-86
2022/01/23 07:44:23;;;;;;;18.08;11.48;;;;;;;;;;6226281;23;20040;-85
2022/01/23 07:46:51;;;;;;;15.95;8.38;;;;;;;;;;6235965;23;20008;-81
2022/01/23 07:49:20;;;;;;;17.70;9.05;;;;;;;;;;6261271;23;20335;-79
2022/01/23 07:51:52;;;;;;;16.90;9.27;;;;;;;;;;6255692;23;20518;-90
2022/01/23 07:54:30;;;;;;;21.88;12.10;;;;;;;;;;6263311;23;20023;-78
2022/01/23 07:56:58;;;;;;;28.75;15.20;;;;;;;;;;6233530;23;20075;-83
2022/01/23 07:59:26;;;;;;;21.23;10.55;;;;;;;;;;6263859;23;20012;-85
2022/01/23 08:01:57;;;;;;;20.50;11.55;;;;;;;;;;6260070;23;20008;-89
2022/01/23 08:04:44;;;;;;;19.73;11.48;;;;;;;;;;6237516;23;20019;-78
2022/01/23 08:07:36;;;;;;;17.80;9.48;;;;;;;;;;6262853;23;20005;-95
2022/01/23 08:10:09;;;;;;;17.63;9.93;;;;;;;;;;6231608;23;20008;-86
2022/01/23 08:12:39;;;;;;;21.00;11.93;;;;;;;;;;6206570;23;20060;-88
2022/01/23 08:15:18;;;;;;;27.63;13.90;;;;;;;;;;6255729;23;20031;-77
2022/01/23 08:17:46;;;;;;;27.13;14.32;;;;;;;;;;6256991;23;20024;-90
2022/01/23 08:20:21;;;;;;;25.55;13.43;;;;;;;;;;6227890;23;20008;-77
2022/01/23 08:22:49;;;;;;;30.65;17.17;;;;;;;;;;6231439;23;20434;-78
2022/01/23 08:25:15;;;;;;;34.65;21.48;;;;;;;;;;6259280;23;20011;-77
2022/01/23 08:27:41;;;;;;;30.00;16.88;;;;;;;;;;6231254;23;20011;-80
2022/01/23 08:30:09;;;;;;;29.05;16.88;;;;;;;;;;6225740;23;20315;-80
2022/01/23 08:32:35;;;;;;;26.27;15.30;;;;;;;;;;6249768;23;20000;-78
2022/01/23 08:35:07;;;;;;;27.02;13.60;;;;;;;;;;6256829;23;20072;-79
2022/01/23 08:37:33;;;;;;;30.33;16.30;;;;;;;;;;6233500;23;20011;-81
2022/01/23 08:40:02;;;;;;;28.23;15.10;;;;;;;;;;6232007;23;20260;-79
2022/01/23 08:42:29;;;;;;;30.27;17.05;;;;;;;;;;6258487;23;20008;-76
2022/01/23 08:44:55;;;;;;;28.55;16.30;;;;;;;;;;6252321;23;20011;-77
2022/01/23 08:47:24;;;;;;;25.00;14.98;;;;;;;;;;6258910;23;20000;-81
2022/01/23 08:50:02;;;;;;;26.38;14.52;;;;;;;;;;6261082;23;20004;-78
2022/01/23 08:52:28;;;;;;;25.58;15.13;;;;;;;;;;6252223;23;20004;-80
2022/01/23 08:54:57;;;;;;;27.35;14.95;;;;;;;;;;6250125;23;19996;-77
2022/01/23 08:57:24;;;;;;;30.65;16.67;;;;;;;;;;6256169;23;20000;-85
2022/01/23 09:00:03;;;;;;;27.88;16.05;;;;;;;;;;6257234;23;20011;-87
2022/01/23 09:02:29;;;;;;;27.05;15.52;;;;;;;;;;6223692;23;19997;-84
2022/01/23 09:05:00;;;;;;;23.27;12.63;;;;;;;;;;6228543;23;20015;-72
2022/01/23 09:07:44;;;;;;;17.55;10.85;;;;;;;;;;6232436;23;20015;-83
2022/01/23 09:10:15;;;;;;;20.20;10.70;;;;;;;;;;6231066;23;20008;-80
2022/01/23 09:12:54;;;;;;;17.58;9.82;;;;;;;;;;6251435;23;20008;-74
2022/01/23 09:15:21;;;;;;;27.13;16.50;;;;;;;;;;6247460;23;20000;-74
2022/01/23 09:17:48;;;;;;;15.95;9.75;;;;;;;;;;6222472;23;20012;-82
2022/01/23 09:20:15;;;;;;;15.07;9.35;;;;;;;;;;6216763;23;20049;-75
2022/01/23 09:22:41;;;;;;;29.83;15.63;;;;;;;;;;6250027;23;20154;-80
2022/01/23 09:25:13;;;;;;;16.23;8.98;;;;;;;;;;6256517;23;20056;-83
2022/01/23 09:27:42;;;;;;;27.33;14.55;;;;;;;;;;6253609;23;20008;-77
2022/01/23 09:30:18;;;;;;;27.65;13.20;;;;;;;;;;6250140;23;19996;-76
2022/01/23 09:32:45;;;;;;;21.63;11.50;;;;;;;;;;6246752;23;20007;-78
2022/01/23 09:35:11;;;;;;;15.95;9.82;;;;;;;;;;6219559;23;20020;-75
2022/01/23 09:37:38;;;;;;;17.00;9.27;;;;;;;;;;6246482;23;19996;-75
2022/01/23 09:40:05;;;;;;;17.02;10.35;;;;;;;;;;6249440;23;20000;-76
2022/01/23 09:42:41;;;;;;;15.20;8.15;;;;;;;;;;6222185;23;20008;-79
2022/01/23 09:45:09;;;;;;;24.63;12.88;;;;;;;;;;6247050;23;20062;-74
2022/01/23 09:47:42;;;;;;;15.25;7.40;;;;;;;;;;6218713;23;20050;-74
2022/01/23 09:50:12;;;;;;;13.13;8.10;;;;;;;;;;6211236;23;20079;-72
2022/01/23 09:52:41;;;;;;;12.25;6.78;;;;;;;;;;6215099;23;20009;-78
2022/01/23 09:55:11;;;;;;;12.50;8.30;;;;;;;;;;6212115;23;20009;-74
2022/01/23 09:57:41;;;;;;;11.57;7.10;;;;;;;;;;6216471;23;20008;-77
2022/01/23 10:00:10;;;;;;;16.27;8.40;;;;;;;;;;6218717;23;20366;-75
2022/01/23 10:02:39;;;;;;;13.68;6.47;;;;;;;;;;6189120;23;20008;-77
2022/01/23 10:05:06;;;;;;;13.20;6.68;;;;;;;;;;6217128;23;20344;-74
2022/01/23 10:07:37;;;;;;;12.05;7.72;;;;;;;;;;6217364;23;20030;-84
2022/01/23 10:10:12;;;;;;;15.35;7.68;;;;;;;;;;6218503;23;20009;-73
2022/01/23 10:12:42;;;;;;;14.52;8.25;;;;;;;;;;6219225;23;20001;-76
2022/01/23 10:15:10;;;;;;;12.15;7.03;;;;;;;;;;6238911;23;20043;-75
2022/01/23 10:17:36;;;;;;;13.75;7.68;;;;;;;;;;6251667;23;20008;-77
2022/01/23 10:20:04;;;;;;;15.85;8.43;;;;;;;;;;6254677;23;20028;-84
2022/01/23 10:22:33;;;;;;;17.85;8.52;;;;;;;;;;6225875;23;20004;-84
2022/01/23 10:25:09;;;;;;;16.65;8.20;;;;;;;;;;6225422;23;20056;-79
2022/01/23 10:27:56;;;;;;;14.15;8.02;;;;;;;;;;6221815;23;20007;-81
2022/01/23 10:30:24;;;;;;;18.45;8.02;;;;;;;;;;6224591;23;20496;-85
2022/01/23 10:33:03;;;;;;;14.70;7.78;;;;;;;;;;6223268;23;20011;-78
2022/01/23 10:35:31;;;;;;;14.93;8.05;;;;;;;;;;6223316;23;20000;-82
2022/01/23 10:38:07;;;;;;;14.77;7.80;;;;;;;;;;6222453;23;20101;-79
2022/01/23 10:40:37;;;;;;;17.60;9.20;;;;;;;;;;6249261;23;20075;-78
2022/01/23 10:48:47;;;;;;;11.57;7.85;;;;;;;;;;6252504;23;20050;-77
2022/01/23 10:51:16;;;;;;;13.40;7.78;;;;;;;;;;6254323;23;20024;-77
2022/01/23 10:53:58;;;;;;;12.27;7.28;;;;;;;;;;6250984;23;20388;-74
2022/01/23 10:56:33;;;;;;;12.75;6.65;;;;;;;;;;6252049;23;20062;-77
2022/01/23 10:59:01;;;;;;;10.68;6.65;;;;;;;;;;6253087;23;19996;-76
2022/01/23 11:01:28;;;;;;;13.18;6.90;;;;;;;;;;6259669;23;20027;-75
2022/01/23 11:04:14;;;;;;;15.57;8.80;;;;;;;;;;6253218;23;20356;-76
2022/01/23 11:06:57;;;;;;;15.27;7.45;;;;;;;;;;6227478;23;20011;-76
2022/01/23 11:09:31;;;;;;;15.50;8.85;;;;;;;;;;6251512;23;20095;-75
2022/01/23 11:12:28;;;;;;;21.85;13.45;;;;;;;;;;6249617;22;20004;-76
2022/01/23 11:17:53;;;;;;;16.85;8.80;;;;;;;;;;6247730;23;20019;-75
2022/01/23 11:20:34;;;;;;;12.05;7.80;;;;;;;;;;6245288;23;20008;-76
2022/01/23 11:23:14;;;;;;;17.13;9.95;;;;;;;;;;6253985;23;20004;-77
2022/01/23 11:25:42;;;;;;;13.75;9.02;;;;;;;;;;6245701;23;20004;-76
2022/01/23 11:28:08;;;;;;;13.90;8.32;;;;;;;;;;6245677;23;20062;-72
2022/01/23 11:30:40;;;;;;;12.15;7.38;;;;;;;;;;6244716;23;20004;-76
2022/01/23 11:33:12;;;;;;;13.48;8.15;;;;;;;;;;6249264;23;20126;-75
2022/01/23 11:35:38;;;;;;;14.73;7.75;;;;;;;;;;6227455;23;20049;-74
2022/01/23 11:38:10;;;;;;;23.90;14.50;;;;;;;;;;6231163;23;20004;-74
2022/01/23 11:54:03;;;;;;;16.45;8.50;;;;;;;;;;6259008;23;20062;-75
2022/01/23 11:56:35;;;;;;;15.55;8.93;;;;;;;;;;6251554;23;20002;-75
2022/01/23 11:59:27;;;;;;;18.63;9.50;;;;;;;;;;6256329;23;20020;-78
2022/01/23 12:02:12;;;;;;;14.63;8.65;;;;;;;;;;6259151;23;20047;-77
2022/01/23 12:05:01;;;;;;;16.48;9.15;;;;;;;;;;6223920;23;20319;-75
2022/01/23 12:07:27;;;;;;;15.23;9.85;;;;;;;;;;6249137;23;20188;-77
2022/01/23 12:10:24;;;;;;;15.55;9.15;;;;;;;;;;6254234;23;20436;-71
2022/01/23 12:13:03;;;;;;;16.00;9.43;;;;;;;;;;6227170;23;19988;-79
2022/01/23 12:18:17;;;;;;;15.05;9.45;;;;;;;;;;6262678;23;20023;-75
2022/01/23 12:20:52;;;;;;;16.52;9.25;;;;;;;;;;6251819;23;20008;-80
2022/01/23 12:23:37;;;;;;;;;;;;;;;;;;6271337;23;20027;-76
2022/01/23 12:26:11;;;;;;;17.00;9.35;;;;;;;;;;6265199;22;19911;-75
2022/01/23 12:28:37;;;;;;;;;;;;;;;;;;6251446;23;20055;-75
2022/01/23 12:31:15;;;;;;;15.25;9.32;;;;;;;;;;6227706;23;19883;-75
2022/01/23 12:33:46;;;;;;;17.65;9.68;;;;;;;;;;6227868;23;20008;-73
2022/01/23 12:36:29;;;;;;;19.42;9.15;;;;;;;;;;6234049;23;20050;-72
2022/01/23 12:39:15;;;;;;;18.40;9.50;;;;;;;;;;6250242;23;20330;-75
2022/01/23 12:41:52;;;;;;;19.42;10.65;;;;;;;;;;6245206;23;20095;-74
2022/01/23 12:44:25;;;;;;;17.13;10.23;;;;;;;;;;6245091;23;20022;-74
2022/01/23 12:46:55;;;;;;;28.70;10.13;;;;;;;;;;6245287;23;20004;-75
2022/01/23 12:49:22;;;;;;;14.43;8.77;;;;;;;;;;6217372;23;20019;-75
2022/01/23 12:51:49;;;;;;;12.48;7.63;;;;;;;;;;6246071;23;20020;-75
2022/01/23 12:54:18;;;;;;;15.52;8.85;;;;;;;;;;6233623;23;20004;-74
2022/01/23 12:56:46;;;;;;;18.60;10.00;;;;;;;;;;6262549;23;20008;-74
2022/01/23 12:59:15;;;;;;;14.38;9.18;;;;;;;;;;6230188;23;20072;-75
2022/01/23 13:01:43;;;;;;;20.95;13.48;;;;;;;;;;6226820;23;20010;-73
2022/01/23 13:04:09;;;;;;;15.40;9.20;;;;;;;;;;6229241;22;20016;-71
2022/01/23 13:06:49;;;;;;;15.95;9.88;;;;;;;;;;6249883;23;20015;-72
2022/01/23 13:09:34;;;;;;;17.83;9.25;;;;;;;;;;6228572;23;20016;-72
2022/01/23 13:12:47;;;;;;;16.60;9.68;;;;;;;;;;6254035;23;20000;-72
2022/01/23 13:18:29;;;;;;;15.55;8.93;;;;;;;;;;6157611;23;20041;-71
2022/01/23 13:32:25;;;;;;;24.75;12.77;;;;;;;;;;6101938;23;20065;-77
2022/01/23 13:35:13;;;;;;;19.52;10.70;;;;;;;;;;6101007;23;20041;-72
2022/01/23 13:37:42;;;;;;;17.40;9.32;;;;;;;;;;6100566;23;20007;-75
2022/01/23 13:40:21;;;;;;;15.02;9.18;;;;;;;;;;6096688;23;20353;-76
2022/01/23 13:59:19;;;;;;;19.55;11.52;;;;;;;;;;6268173;23;20012;-77
2022/01/23 14:01:52;;;;;;;23.27;13.43;;;;;;;;;;6238923;23;20107;-77
2022/01/23 14:04:20;;;;;;;22.27;11.80;;;;;;;;;;6244147;22;20014;-76
2022/01/23 14:06:46;;;;;;;17.85;9.93;;;;;;;;;;6265552;23;20085;-69
2022/01/23 14:09:13;;;;;;;22.52;12.43;;;;;;;;;;6232463;23;20026;-70
2022/01/23 14:11:40;;;;;;;23.55;13.30;;;;;;;;;;6257183;23;20006;-68
2022/01/23 14:14:19;;;;;;;20.42;12.27;;;;;;;;;;6258061;23;20156;-69
2022/01/23 14:16:51;;;;;;;22.40;12.52;;;;;;;;;;6261158;23;20019;-70
2022/01/23 14:19:29;;;;;;;18.05;10.90;;;;;;;;;;6262712;23;20084;-69
2022/01/23 14:22:05;;;;;;;18.75;11.93;;;;;;;;;;6231645;23;20018;-71
2022/01/23 14:24:50;;;;;;;21.23;13.15;;;;;;;;;;6258583;23;20096;-72
2022/01/23 14:27:25;;;;;;;21.90;9.73;;;;;;;;;;6258990;23;20000;-75
2022/01/23 14:30:01;;;;;;;18.67;10.65;;;;;;;;;;6232998;23;20008;-74
2022/01/23 14:32:39;;;;;;;;;;;;;;;;;;6270853;22;20051;-76
2022/01/23 14:35:07;;;;;;;18.85;11.10;;;;;;;;;;6209913;22;19920;-77
2022/01/23 14:37:33;;;;;;;58.70;42.28;;;;;;;;;;6217760;23;20008;-75
2022/01/23 14:40:08;;;;;;;27.83;17.90;;;;;;;;;;6218217;23;20039;-75
2022/01/23 14:42:34;;;;;;;23.70;13.40;;;;;;;;;;6218467;23;20004;-76
2022/01/23 14:45:04;;;;;;;29.02;13.63;;;;;;;;;;6222683;23;20059;-75
2022/01/23 14:47:48;;;;;;;20.17;12.38;;;;;;;;;;6245347;23;20004;-73
2022/01/23 14:50:17;;;;;;;21.77;12.68;;;;;;;;;;6218001;23;20007;-75
2022/01/23 14:52:48;;;;;;;21.30;13.82;;;;;;;;;;6217903;23;20000;-75
2022/01/23 14:55:14;;;;;;;19.98;12.20;;;;;;;;;;6245154;23;19996;-74
2022/01/23 14:57:41;;;;;;;25.05;15.38;;;;;;;;;;6217149;23;20014;-75
2022/01/23 15:00:09;;;;;;;24.05;14.05;;;;;;;;;;6217560;23;20030;-75
2022/01/23 15:02:35;;;;;;;26.60;14.80;;;;;;;;;;6266318;22;20031;-74
2022/01/23 15:05:03;;;;;;;26.85;14.25;;;;;;;;;;6276256;22;20015;-75
2022/01/23 15:07:36;;;;;;;23.52;13.23;;;;;;;;;;6275570;22;20405;-75
2022/01/23 15:10:03;;;;;;;23.75;13.15;;;;;;;;;;6274682;22;20003;-73
2022/01/23 15:12:29;;;;;;;24.30;14.75;;;;;;;;;;6275357;22;20000;-74
2022/01/23 15:14:55;;;;;;;50.80;29.52;;;;;;;;;;6274870;22;19999;-74
2022/01/23 15:17:25;;;;;;;54.10;29.00;;;;;;;;;;6276739;22;20038;-75
2022/01/23 15:19:54;;;;;;;74.80;37.05;;;;;;;;;;6276933;22;20000;-74
2022/01/23 15:22:22;;;;;;;103.63;46.45;;;;;;;;;;6275137;22;20000;-75
2022/01/23 15:24:48;;;;;;;71.15;35.53;;;;;;;;;;6275106;22;20004;-76
2022/01/23 15:27:16;;;;;;;47.33;25.30;;;;;;;;;;6274417;22;20003;-74
2022/01/23 15:29:42;;;;;;;57.17;31.33;;;;;;;;;;6274729;22;20367;-75
2022/01/23 15:32:08;;;;;;;64.68;33.65;;;;;;;;;;6276370;22;20049;-74
2022/01/23 15:34:36;;;;;;;46.50;26.88;;;;;;;;;;6275234;22;20035;-74
2022/01/23 15:37:05;;;;;;;59.90;31.73;;;;;;;;;;6284995;22;20011;-81
2022/01/23 15:39:32;;;;;;;60.60;31.77;;;;;;;;;;6278969;22;20042;-75
2022/01/23 15:42:00;;;;;;;76.13;37.13;;;;;;;;;;6279858;22;20002;-71
2022/01/23 15:44:32;;;;;;;77.75;38.83;;;;;;;;;;6281396;22;20076;-73
2022/01/23 15:46:59;;;;;;;79.85;40.67;;;;;;;;;;6283684;22;19999;-79
2022/01/23 15:49:25;;;;;;;86.93;43.13;;;;;;;;;;6251821;22;20004;-72
2022/01/23 15:51:51;;;;;;;77.43;40.65;;;;;;;;;;6286948;22;20003;-77
2022/01/23 15:54:22;;;;;;;84.85;44.28;;;;;;;;;;6280423;22;20007;-82
2022/01/23 15:56:48;;;;;;;61.35;32.70;;;;;;;;;;6283312;22;19996;-76
2022/01/23 15:59:19;;;;;;;56.38;31.88;;;;;;;;;;6283134;22;19999;-73
2022/01/23 16:01:50;;;;;;;53.60;29.70;;;;;;;;;;6279861;22;20054;-77
2022/01/23 16:04:17;;;;;;;62.00;32.65;;;;;;;;;;6258081;22;20011;-80
2022/01/23 16:06:46;;;;;;;75.35;39.28;;;;;;;;;;6284446;22;20012;-79
2022/01/23 16:09:12;;;;;;;81.93;46.00;;;;;;;;;;6251232;22;20031;-77
2022/01/23 16:11:38;;;;;;;89.85;48.63;;;;;;;;;;6279527;22;20440;-76
2022/01/23 16:14:05;;;;;;;92.93;50.58;;;;;;;;;;6278156;22;20452;-79
2022/01/23 16:16:31;;;;;;;118.55;58.97;;;;;;;;;;6278794;22;19996;-77
2022/01/23 16:18:57;;;;;;;108.25;55.92;;;;;;;;;;6279038;22;20007;-77
2022/01/23 16:21:27;;;;;;;101.60;52.58;;;;;;;;;;6278288;22;20011;-73
2022/01/23 16:23:54;;;;;;;99.18;50.53;;;;;;;;;;6278226;22;20004;-73
2022/01/23 16:26:20;;;;;;;80.45;43.47;;;;;;;;;;6278206;22;20079;-74
2022/01/23 16:28:47;;;;;;;83.75;42.42;;;;;;;;;;6280368;22;20456;-75
2022/01/23 16:31:14;;;;;;;73.68;40.13;;;;;;;;;;6280796;22;20035;-74
2022/01/23 16:33:41;;;;;;;85.57;44.13;;;;;;;;;;6281523;22;19996;-83
2022/01/23 16:36:10;;;;;;;78.13;41.40;;;;;;;;;;6300205;22;20010;-87
2022/01/23 16:38:41;;;;;;;79.93;40.67;;;;;;;;;;6237877;22;20011;-76
2022/01/23 16:41:11;;;;;;;58.35;33.97;;;;;;;;;;6311729;22;20006;-92
2022/01/23 16:44:11;;;;;;;60.33;32.20;;;;;;;;;;6321875;22;20029;-91
2022/01/23 16:46:45;;;;;;;63.08;33.60;;;;;;;;;;6300707;22;20015;-94
2022/01/23 16:49:20;;;;;;;64.88;36.55;;;;;;;;;;6263891;22;20029;-76
2022/01/23 16:51:46;;;;;;;86.00;44.35;;;;;;;;;;6281713;22;20008;-76
2022/01/23 16:54:14;;;;;;;86.05;45.25;;;;;;;;;;6283231;22;20440;-76
2022/01/23 16:56:41;;;;;;;71.97;38.33;;;;;;;;;;6311624;22;20125;-75
2022/01/23 16:59:08;;;;;;;79.47;40.50;;;;;;;;;;6313320;22;20023;-76
2022/01/23 17:01:37;;;;;;;83.78;44.30;;;;;;;;;;6312081;22;20366;-82
2022/01/23 17:04:08;;;;;;;73.53;39.85;;;;;;;;;;6314917;22;20026;-75
2022/01/23 17:06:38;;;;;;;70.82;36.38;;;;;;;;;;6285648;22;20015;-77
2022/01/23 17:09:30;;;;;;;55.60;30.48;;;;;;;;;;6323719;22;20007;-89
2022/01/23 17:11:59;;;;;;;60.47;33.25;;;;;;;;;;6294148;22;20007;-79
2022/01/23 17:14:49;;;;;;;57.38;30.50;;;;;;;;;;6308923;22;20085;-89
2022/01/23 17:17:15;;;;;;;39.35;23.02;;;;;;;;;;6289772;22;20007;-77
2022/01/23 17:19:44;;;;;;;38.35;20.98;;;;;;;;;;6316241;22;20070;-77
2022/01/23 17:22:10;;;;;;;40.40;21.33;;;;;;;;;;6314099;22;20051;-80
2022/01/23 17:24:55;;;;;;;43.35;22.65;;;;;;;;;;6319874;22;20011;-90
2022/01/23 17:27:23;;;;;;;36.42;21.23;;;;;;;;;;6286869;22;20005;-83
2022/01/23 17:29:50;;;;;;;39.65;22.83;;;;;;;;;;6290121;22;20007;-76
2022/01/23 17:32:21;;;;;;;42.25;24.67;;;;;;;;;;6290788;22;20006;-77
2022/01/23 17:34:48;;;;;;;39.42;22.58;;;;;;;;;;6313210;22;20023;-75
2022/01/23 17:37:19;;;;;;;51.35;27.38;;;;;;;;;;6312505;22;20095;-74
2022/01/23 17:39:49;;;;;;;48.72;27.00;;;;;;;;;;6313382;22;20023;-74
2022/01/23 17:42:15;;;;;;;38.83;21.23;;;;;;;;;;6312455;22;20018;-76
2022/01/23 17:44:46;;;;;;;38.35;22.90;;;;;;;;;;6312580;22;20015;-74
2022/01/23 17:47:21;;;;;;;38.75;23.50;;;;;;;;;;6285344;22;20007;-77
2022/01/23 17:50:04;;;;;;;51.38;30.17;;;;;;;;;;6318061;22;20026;-76
2022/01/23 17:52:31;;;;;;;42.03;24.77;;;;;;;;;;6317016;22;19999;-76
2022/01/23 17:55:00;;;;;;;41.28;24.45;;;;;;;;;;6312840;22;20003;-77
2022/01/23 17:57:30;;;;;;;47.40;25.02;;;;;;;;;;6288045;22;20083;-76
2022/01/23 17:59:57;;;;;;;53.35;29.13;;;;;;;;;;6315470;22;20006;-77
2022/01/23 18:02:27;;;;;;;49.97;29.65;;;;;;;;;;6311025;22;20081;-77
2022/01/23 18:04:54;;;;;;;55.95;30.27;;;;;;;;;;6308889;22;20370;-77